Aeroporto :
LOGIN :

Iscrizione | Disclaimer

   EN    FR    IT 

 










Sommario :    VFR   VFR Marginale   IFR   IFR Intensivo   IFR Molto Intensivo
Visibilità : 
Base nubi : 
>= 8 km
>= 3000ft
5 / 8 km
1000 / 3000 ft
1500m / 5 km
500 / 1000 ft
800 / 1500m
200 / 500 ft
< 800m
< 200 ft
Simboli :   Temporali  Nebbia  Neve Forte  Precipitazioni Forti  Vento > 20 kt
SIGMETs :   Varie  Temporali  Ghiacco  Turbolenza  Onda orograficha  Ceneri Vulcaniche






- Altitudine del aeroporto : 995 ft
- Codice IATA : KTW


EPKT - Katowice

ULTIMO METAR :
  • 061100Z 22016KT CAVOK 00/M04 Q1016

METARs OBSOLETI :
  • 061030Z 22017KT CAVOK 00/M04 Q1016
  • 061000Z 22015KT CAVOK M00/M04 Q1017
  • 060930Z 22016KT 9000 NSC M00/M04 Q1017
  • 060900Z 22014KT 9000 SCT011 M01/M04 Q1017
  • 060830Z 21013KT 8000 BKN010 M02/M04 Q1017

TAF TAF EPKT
Valido dal 06 a 06 ore il 07 a 06 ore UTC


060530Z 0606/0706 23015KT 9999 BKN009
BECMG 0606/0609 CAVOK
TEMPO 0606/0706 23015G28KT



MetMap, La meteo Aeronautica in un colpo d'occhio ! - Copyright ORBIFLY Dicembre 2007 - Disclaimer

ORBIFLY MET'MAP TEAM :

Programmazione e sviluppo : Alexandra Zaïnal
Concezione : Baudouin d'Aumeries
Aiuto per la programmazione : Marc-Olivier Méhu
Supporto tecnico e logistico : Manuel Goepfert
Aiuto per la traduzione : Arnaldo La Scala

Contatto : metmap@orbifly.com




FONTI E CREDITI :

   NOAA